Time;durP1;ratioP1;P1;durP2;ratioP2;P2;SDS_P1;SDS_P2;PMS_P1;PMS_P2;Temp;Humidity;BMP_temperature;BMP_pressure;BME280_temperature;BME280_humidity;BME280_pressure;Samples;Min_cycle;Max_cycle;Signal;HPM_P1;HPM_P2
2022/08/09 00:01:48;;;;;;;7.07;5.25;;;;;;;21.21;81.48;99788.03;5175475;27;20280;-78
2022/08/09 00:04:23;;;;;;;3.95;3.25;;;;;;;21.19;80.70;99792.72;5167348;27;20241;-77
2022/08/09 00:07:03;;;;;;;7.47;4.38;;;;;;;21.03;81.71;99784.44;5171002;27;20200;-77
2022/08/09 00:09:38;;;;;;;5.97;3.73;;;;;;;21.21;81.61;99784.47;5152790;27;20200;-78
2022/08/09 00:12:07;;;;;;;9.13;5.80;;;;;;;21.22;81.59;99783.47;5166603;27;20188;-78
2022/08/09 00:14:37;;;;;;;12.23;9.40;;;;;;;21.25;80.65;99783.19;5168671;27;20237;-78
2022/08/09 00:17:06;;;;;;;9.70;6.07;;;;;;;20.88;83.02;99772.47;5173605;27;20223;-78
2022/08/09 00:19:35;;;;;;;9.90;7.10;;;;;;;20.96;83.63;99778.81;5169728;27;20272;-78
2022/08/09 00:22:07;;;;;;;10.23;7.30;;;;;;;20.83;84.03;99775.59;5172691;27;20312;-77
2022/08/09 00:24:38;;;;;;;8.63;4.93;;;;;;;20.74;85.37;99779.19;5174969;27;20221;-78
2022/08/09 00:27:07;;;;;;;4.47;3.63;;;;;;;20.65;85.97;99771.97;5173208;27;20264;-78
2022/08/09 00:29:37;;;;;;;6.67;4.33;;;;;;;20.65;86.87;99782.75;5172932;27;20193;-78
2022/08/09 00:32:29;;;;;;;6.37;3.00;;;;;;;20.83;86.53;99776.44;5179538;27;20654;-78
2022/08/09 00:34:58;;;;;;;6.60;3.53;;;;;;;20.48;88.23;99771.78;5134522;27;20200;-77
2022/08/09 00:37:27;;;;;;;6.53;3.10;;;;;;;20.56;89.29;99776.44;5169950;27;20196;-78
2022/08/09 00:39:59;;;;;;;7.13;3.80;;;;;;;20.57;89.33;99778.13;5172704;27;20216;-78
2022/08/09 00:42:37;;;;;;;4.20;3.40;;;;;;;20.56;89.49;99763.81;5177413;27;20213;-78
2022/08/09 00:45:29;;;;;;;6.30;3.87;;;;;;;20.35;91.07;99779.25;5179326;27;20201;-78
2022/08/09 00:48:01;;;;;;;5.10;3.33;;;;;;;20.43;92.48;99778.56;5175011;27;20197;-77
2022/08/09 00:50:31;;;;;;;5.03;3.50;;;;;;;20.63;91.62;99780.22;5168716;27;20639;-80
2022/08/09 00:53:00;;;;;;;5.03;3.63;;;;;;;20.74;90.76;99777.31;5171283;27;20762;-77
2022/08/09 00:55:37;;;;;;;5.20;2.80;;;;;;;20.77;90.83;99776.22;5176180;27;20193;-78
2022/08/09 00:58:27;;;;;;;3.50;2.77;;;;;;;20.76;90.54;99777.22;5179163;27;20245;-78
2022/08/09 01:01:06;;;;;;;4.37;3.33;;;;;;;20.62;92.19;99777.66;5167625;27;20203;-77
2022/08/09 01:03:50;;;;;;;4.80;3.17;;;;;;;20.58;92.63;99777.97;5173187;27;20236;-77
2022/08/09 01:06:32;;;;;;;4.03;3.00;;;;;;;20.70;92.59;99769.72;5172728;27;20322;-80
2022/08/09 01:09:27;;;;;;;6.00;3.53;;;;;;;20.71;92.40;99766.03;5178958;27;20670;-77
2022/08/09 01:12:12;;;;;;;7.17;3.30;;;;;;;20.64;93.34;99771.13;5159362;27;20185;-78
2022/08/09 01:14:48;;;;;;;5.67;3.70;;;;;;;20.56;94.56;99781.81;5175207;27;20189;-78
2022/08/09 01:17:25;;;;;;;3.63;3.03;;;;;;;20.39;95.41;99783.38;5175932;27;20651;-77
2022/08/09 01:20:00;;;;;;;3.70;2.87;;;;;;;20.42;96.27;99782.22;5173286;27;20200;-78
2022/08/09 01:22:45;;;;;;;4.57;3.43;;;;;;;20.40;96.68;99779.69;5168690;27;20221;-78
2022/08/09 01:25:32;;;;;;;4.90;2.90;;;;;;;20.40;97.00;99777.00;5174952;27;20185;-78
2022/08/09 01:28:12;;;;;;;4.88;3.05;;;;;;;20.29;97.39;99778.03;5142323;27;20197;-77
2022/08/09 01:30:43;;;;;;;4.70;3.07;;;;;;;20.29;98.01;99777.19;5176036;27;20191;-77
2022/08/09 01:33:24;;;;;;;4.77;3.10;;;;;;;20.40;98.05;99781.53;5172248;27;20193;-78
2022/08/09 01:36:02;;;;;;;4.57;3.23;;;;;;;20.38;97.44;99788.91;5174917;27;20196;-78
2022/08/09 01:38:34;;;;;;;4.70;3.43;;;;;;;20.20;98.64;99786.97;5170650;27;20192;-78
2022/08/09 01:41:12;;;;;;;4.20;2.87;;;;;;;20.11;100.00;99782.44;5172818;27;20218;-78
2022/08/09 01:43:45;;;;;;;5.03;2.83;;;;;;;19.92;100.00;99779.78;5116491;27;20316;-78
2022/08/09 01:46:22;;;;;;;3.63;3.07;;;;;;;20.00;100.00;99783.44;5172654;27;20389;-78
2022/08/09 01:48:55;;;;;;;5.80;3.63;;;;;;;19.91;100.00;99781.63;5175493;27;20188;-78
2022/08/09 01:51:30;;;;;;;4.17;3.50;;;;;;;19.94;100.00;99777.78;5171866;27;20197;-78
2022/08/09 01:54:01;;;;;;;6.47;3.20;;;;;;;19.69;100.00;99779.22;5173939;27;20185;-78
2022/08/09 01:56:35;;;;;;;5.57;3.43;;;;;;;19.88;100.00;99772.97;5172602;27;20185;-78
2022/08/09 01:59:10;;;;;;;4.23;3.10;;;;;;;19.58;100.00;99782.88;5173704;27;20253;-78
2022/08/09 02:01:44;;;;;;;4.80;2.83;;;;;;;19.62;100.00;99783.44;5171979;27;20727;-78
2022/08/09 02:04:30;;;;;;;6.57;3.10;;;;;;;19.82;100.00;99789.69;5172710;27;20197;-78
2022/08/09 02:07:08;;;;;;;5.07;3.30;;;;;;;19.55;100.00;99791.19;5168638;27;20189;-78
2022/08/09 02:10:04;;;;;;;3.90;3.13;;;;;;;19.65;100.00;99801.97;5177451;27;20193;-78
2022/08/09 02:12:34;;;;;;;5.50;3.23;;;;;;;19.52;100.00;99793.31;5174981;27;20200;-78
2022/08/09 02:15:07;;;;;;;5.23;3.50;;;;;;;19.63;100.00;99798.59;5170534;27;20688;-78
2022/08/09 02:17:44;;;;;;;4.07;3.40;;;;;;;19.57;100.00;99794.59;5177458;27;20253;-78
2022/08/09 02:20:35;;;;;;;6.50;3.30;;;;;;;19.64;100.00;99795.75;5177597;27;20292;-78
2022/08/09 02:23:10;;;;;;;5.40;3.40;;;;;;;19.72;100.00;99790.53;5176466;27;20308;-79
2022/08/09 02:25:42;;;;;;;6.30;3.13;;;;;;;19.56;100.00;99798.28;5174413;27;20231;-78
2022/08/09 02:28:23;;;;;;;4.70;3.37;;;;;;;19.52;100.00;99791.47;5175922;27;20222;-78
2022/08/09 02:31:01;;;;;;;6.50;3.23;;;;;;;19.23;100.00;99799.47;5108536;28;20198;-78
2022/08/09 02:33:37;;;;;;;3.97;3.17;;;;;;;19.43;100.00;99793.16;5106798;28;20286;-78
2022/08/09 02:36:30;;;;;;;4.80;3.30;;;;;;;19.58;100.00;99795.44;5111603;28;20195;-78
2022/08/09 02:39:04;;;;;;;4.67;3.00;;;;;;;19.50;100.00;99792.63;5108884;28;20195;-78
2022/08/09 02:41:40;;;;;;;5.40;3.13;;;;;;;19.52;100.00;99804.06;5105657;28;20234;-78
2022/08/09 02:44:13;;;;;;;4.30;3.30;;;;;;;19.34;100.00;99798.50;5107492;28;20240;-78
2022/08/09 02:47:04;;;;;;;8.33;3.77;;;;;;;19.37;100.00;99792.84;5071147;28;20200;-78
2022/08/09 02:49:36;;;;;;;4.07;3.07;;;;;;;18.95;100.00;99800.25;5093421;28;20201;-78
2022/08/09 02:52:14;;;;;;;8.50;3.70;;;;;;;19.11;100.00;99790.69;5104752;28;20205;-78
2022/08/09 02:54:44;;;;;;;4.83;3.43;;;;;;;19.10;100.00;99790.81;5112348;28;20277;-78
2022/08/09 02:57:23;;;;;;;5.60;3.53;;;;;;;19.19;100.00;99792.66;5108327;28;20195;-78
2022/08/09 02:59:55;;;;;;;4.67;3.40;;;;;;;19.09;100.00;99792.63;5110109;28;20191;-78
2022/08/09 03:02:49;;;;;;;4.53;3.50;;;;;;;19.19;100.00;99789.13;5112095;28;20198;-78
2022/08/09 03:05:28;;;;;;;4.30;3.30;;;;;;;19.12;100.00;99789.69;5096491;28;20218;-78
2022/08/09 03:08:02;;;;;;;3.67;3.17;;;;;;;18.96;100.00;99780.44;5044833;28;20209;-78
2022/08/09 03:10:33;;;;;;;5.30;3.43;;;;;;;18.59;100.00;99787.19;5049100;28;20189;-78
2022/08/09 03:13:04;;;;;;;5.30;3.60;;;;;;;18.71;100.00;99787.97;5051438;28;20382;-78
2022/08/09 03:15:38;;;;;;;3.60;3.07;;;;;;;18.83;100.00;99789.59;5045251;28;20197;-78
2022/08/09 03:18:28;;;;;;;6.67;3.77;;;;;;;18.65;100.00;99799.25;5051264;28;20207;-78
2022/08/09 03:21:00;;;;;;;5.00;3.47;;;;;;;18.53;100.00;99794.94;5048469;28;20268;-78
2022/08/09 03:23:28;;;;;;;5.03;3.37;;;;;;;18.59;100.00;99797.06;5074524;28;20219;-78
2022/08/09 03:25:58;;;;;;;4.90;3.30;;;;;;;18.66;100.00;99798.28;5135849;27;20200;-78
2022/08/09 03:28:35;;;;;;;6.33;3.50;;;;;;;18.45;100.00;99797.44;5170470;27;20192;-78
2022/08/09 03:31:04;;;;;;;4.23;3.47;;;;;;;18.52;100.00;99801.25;5171128;27;20216;-78
2022/08/09 03:33:50;;;;;;;7.87;3.37;;;;;;;18.38;100.00;99801.63;5157689;27;20193;-78
2022/08/09 03:36:22;;;;;;;4.90;3.23;;;;;;;18.48;100.00;99800.69;5169937;27;20189;-77
2022/08/09 03:38:54;;;;;;;4.70;3.33;;;;;;;18.39;100.00;99803.31;5172820;27;20197;-78
2022/08/09 03:41:24;;;;;;;5.20;3.47;;;;;;;18.39;100.00;99804.16;5167145;27;20695;-78
2022/08/09 03:44:11;;;;;;;4.23;3.00;;;;;;;18.55;100.00;99801.88;5175397;27;20221;-78
2022/08/09 03:46:42;;;;;;;8.07;3.33;;;;;;;18.56;100.00;99806.25;5167220;27;20191;-78
2022/08/09 03:49:14;;;;;;;4.93;3.40;;;;;;;18.65;100.00;99801.94;5168390;27;20185;-78
2022/08/09 03:51:49;;;;;;;5.80;3.43;;;;;;;18.47;100.00;99804.34;5165786;27;20643;-77
2022/08/09 03:54:30;;;;;;;8.10;3.43;;;;;;;18.47;100.00;99809.72;5171322;27;20197;-78
2022/08/09 03:57:02;;;;;;;5.70;3.40;;;;;;;18.52;100.00;99810.16;5111330;28;20206;-78
2022/08/09 03:59:45;;;;;;;4.83;3.40;;;;;;;18.38;100.00;99813.19;5111084;28;20187;-78
2022/08/09 04:02:23;;;;;;;5.17;3.50;;;;;;;18.26;100.00;99812.41;5109738;28;20240;-78
2022/08/09 04:05:00;;;;;;;5.20;3.53;;;;;;;18.35;100.00;99816.16;5108832;28;20268;-78
2022/08/09 04:07:46;;;;;;;5.03;3.40;;;;;;;18.21;100.00;99819.16;5105945;28;20281;-78
2022/08/09 04:10:27;;;;;;;5.00;3.60;;;;;;;18.36;100.00;99804.44;5107920;28;20666;-78
2022/08/09 04:13:08;;;;;;;5.13;3.30;;;;;;;18.53;100.00;99813.72;5105583;28;20236;-78
2022/08/09 04:15:39;;;;;;;4.77;3.43;;;;;;;18.34;100.00;99817.13;5049940;28;20192;-78
2022/08/09 04:18:28;;;;;;;5.43;3.87;;;;;;;18.27;100.00;99814.13;5070546;28;20200;-78
2022/08/09 04:21:00;;;;;;;4.00;3.53;;;;;;;18.07;100.00;99819.47;5062045;28;20486;-78
2022/08/09 04:23:31;;;;;;;6.13;3.50;;;;;;;17.94;100.00;99814.28;5066479;28;20220;-78
2022/08/09 04:26:00;;;;;;;5.17;3.37;;;;;;;18.03;100.00;99817.03;5068124;28;20184;-78
2022/08/09 04:28:28;;;;;;;6.80;3.60;;;;;;;18.06;100.00;99823.16;5067818;28;20189;-78
2022/08/09 04:31:05;;;;;;;5.23;3.53;;;;;;;18.06;100.00;99823.16;5066592;28;20200;-78
2022/08/09 04:33:38;;;;;;;5.17;3.63;;;;;;;18.04;100.00;99820.56;5106913;27;20211;-78
2022/08/09 04:36:27;;;;;;;4.67;3.50;;;;;;;17.92;100.00;99827.81;5168902;27;20294;-78
2022/08/09 04:38:57;;;;;;;6.37;4.07;;;;;;;17.85;100.00;99823.94;5169572;27;20723;-78
2022/08/09 04:41:31;;;;;;;5.87;3.60;;;;;;;18.12;100.00;99833.34;5170981;27;20188;-78
2022/08/09 04:44:11;;;;;;;4.43;3.53;;;;;;;18.06;100.00;99831.19;5167882;27;20292;-78
2022/08/09 04:46:41;;;;;;;4.53;3.67;;;;;;;18.13;100.00;99832.34;5167899;27;20224;-78
2022/08/09 04:49:31;;;;;;;5.40;3.50;;;;;;;18.02;100.00;99838.63;5169158;27;20197;-78
2022/08/09 04:52:24;;;;;;;5.93;3.70;;;;;;;17.98;100.00;99839.88;5173857;27;20208;-78
2022/08/09 04:54:55;;;;;;;5.13;3.47;;;;;;;17.92;100.00;99840.38;5170525;27;20241;-78
2022/08/09 04:57:24;;;;;;;5.00;3.63;;;;;;;18.05;100.00;99841.06;5170685;27;20185;-78
2022/08/09 04:59:54;;;;;;;4.20;3.60;;;;;;;18.04;100.00;99844.69;5166375;27;20199;-78
2022/08/09 05:02:23;;;;;;;5.47;4.00;;;;;;;18.13;100.00;99851.13;5169163;27;20288;-77
2022/08/09 05:04:54;;;;;;;4.83;3.23;;;;;;;18.14;100.00;99852.81;5173700;27;20217;-78
2022/08/09 05:07:25;;;;;;;7.40;3.67;;;;;;;18.24;100.00;99857.31;5174163;27;20666;-77
2022/08/09 05:09:59;;;;;;;6.43;3.93;;;;;;;18.19;100.00;99858.66;5178915;27;20271;-76
2022/08/09 05:12:30;;;;;;;6.67;3.70;;;;;;;18.20;100.00;99861.22;5172306;27;20189;-79
2022/08/09 05:15:01;;;;;;;4.40;3.70;;;;;;;18.38;100.00;99855.28;5172898;27;20199;-79
2022/08/09 05:17:31;;;;;;;3.30;3.00;;;;;;;18.36;100.00;99862.59;5172310;27;20192;-79
2022/08/09 05:20:20;;;;;;;6.07;3.53;;;;;;;18.31;100.00;99871.03;5178890;27;20193;-79
2022/08/09 05:22:58;;;;;;;6.90;3.43;;;;;;;18.38;100.00;99864.16;5076299;27;20224;-79
2022/08/09 05:25:46;;;;;;;4.20;3.40;;;;;;;18.54;100.00;99867.25;5072509;27;20220;-79
2022/08/09 05:28:18;;;;;;;6.13;3.07;;;;;;;18.48;100.00;99877.66;5080801;27;20200;-79
2022/08/09 05:30:47;;;;;;;5.10;3.37;;;;;;;18.64;100.00;99879.88;5079442;27;20189;-79
2022/08/09 05:33:18;;;;;;;4.47;3.37;;;;;;;18.69;100.00;99886.56;5079862;27;20650;-79
2022/08/09 05:35:55;;;;;;;4.47;3.37;;;;;;;18.82;100.00;99884.53;5082269;27;20260;-79
2022/08/09 05:38:25;;;;;;;5.57;3.20;;;;;;;18.96;100.00;99879.81;5077450;27;20207;-79
2022/08/09 05:40:55;;;;;;;7.17;3.63;;;;;;;18.93;100.00;99878.25;5079892;27;20589;-79
2022/08/09 05:43:23;;;;;;;5.67;3.30;;;;;;;18.95;100.00;99880.78;5075290;27;20201;-78
2022/08/09 05:46:00;;;;;;;5.47;3.40;;;;;;;18.93;100.00;99888.13;5112859;27;20233;-78
2022/08/09 05:48:29;;;;;;;6.13;3.40;;;;;;;18.93;100.00;99886.28;5129416;27;20202;-79
2022/08/09 05:51:00;;;;;;;5.00;3.30;;;;;;;18.98;100.00;99881.34;5129171;27;20187;-79
2022/08/09 05:53:51;;;;;;;4.20;3.40;;;;;;;19.11;100.00;99890.06;5134745;27;20641;-79
2022/08/09 05:56:27;;;;;;;5.13;3.40;;;;;;;19.25;100.00;99894.19;5125366;27;20325;-79
2022/08/09 05:58:56;;;;;;;5.17;3.23;;;;;;;19.43;100.00;99892.56;5128407;27;20195;-79
2022/08/09 06:01:26;;;;;;;5.17;3.13;;;;;;;19.36;100.00;99894.09;5125229;27;20198;-79
2022/08/09 06:04:01;;;;;;;5.90;3.50;;;;;;;19.34;100.00;99896.06;5101127;27;20283;-79
2022/08/09 06:06:33;;;;;;;5.53;3.33;;;;;;;19.39;100.00;99893.81;5076398;27;20195;-78
2022/08/09 06:09:04;;;;;;;5.77;3.10;;;;;;;19.60;100.00;99895.63;5071864;28;20232;-79
2022/08/09 06:11:52;;;;;;;7.27;3.47;;;;;;;19.54;100.00;99902.38;5071780;28;20211;-79
2022/08/09 06:14:25;;;;;;;5.50;3.53;;;;;;;19.51;100.00;99901.81;5078894;27;20196;-79
2022/08/09 06:16:55;;;;;;;4.03;3.00;;;;;;;19.47;100.00;99901.19;5080631;27;20201;-79
2022/08/09 06:19:25;;;;;;;6.43;3.20;;;;;;;19.60;100.00;99909.91;5077103;27;20241;-79
2022/08/09 06:21:54;;;;;;;5.60;3.20;;;;;;;19.63;100.00;99901.56;5130214;27;20228;-79
2022/08/09 06:24:29;;;;;;;5.07;3.20;;;;;;;19.82;100.00;99907.97;5109458;28;20198;-79
2022/08/09 06:26:58;;;;;;;4.57;3.20;;;;;;;19.76;100.00;99912.06;5036169;28;20233;-79
2022/08/09 06:29:26;;;;;;;3.17;2.80;;;;;;;19.96;100.00;99913.78;5050023;28;20197;-79
2022/08/09 06:31:55;;;;;;;6.57;3.37;;;;;;;20.07;100.00;99923.56;5052542;28;20236;-79
2022/08/09 06:34:43;;;;;;;8.80;3.60;;;;;;;20.09;100.00;99907.31;5052375;28;20212;-79
2022/08/09 06:37:19;;;;;;;6.80;3.10;;;;;;;20.30;100.00;99916.94;5047623;28;20219;-79
2022/08/09 06:39:59;;;;;;;7.07;3.27;;;;;;;20.41;100.00;99918.63;5050609;28;20283;-79
2022/08/09 06:42:49;;;;;;;3.47;3.00;;;;;;;20.41;100.00;99918.63;5029308;28;20725;-79
2022/08/09 06:45:18;;;;;;;4.93;3.30;;;;;;;20.39;100.00;99917.94;5071525;27;20218;-79
2022/08/09 06:48:06;;;;;;;5.73;3.20;;;;;;;20.48;100.00;99913.56;5133506;27;20267;-79
2022/08/09 06:50:36;;;;;;;7.67;3.47;;;;;;;20.37;100.00;99916.38;5119982;27;20202;-79
2022/08/09 06:53:05;;;;;;;7.50;3.40;;;;;;;20.63;100.00;99916.66;5122793;27;20202;-79
2022/08/09 06:55:36;;;;;;;4.80;3.27;;;;;;;20.69;100.00;99918.78;5130416;27;20229;-79
2022/08/09 06:58:06;;;;;;;6.90;3.40;;;;;;;20.64;100.00;99924.59;5125113;27;20373;-79
2022/08/09 07:00:55;;;;;;;6.90;3.23;;;;;;;20.86;100.00;99920.75;5159113;27;20237;-79
2022/08/09 07:03:27;;;;;;;5.50;3.50;;;;;;;20.92;100.00;99927.38;5132972;27;20203;-79
2022/08/09 07:05:58;;;;;;;7.17;3.27;;;;;;;21.03;100.00;99936.13;5129079;27;20301;-81
2022/08/09 07:08:33;;;;;;;4.60;3.13;;;;;;;21.11;100.00;99930.88;5130844;27;20196;-82
2022/08/09 07:11:07;;;;;;;6.60;2.80;;;;;;;21.20;100.00;99928.28;5096413;27;20250;-81
2022/08/09 07:13:42;;;;;;;6.00;3.23;;;;;;;21.35;99.52;99927.72;5127060;27;20197;-81
2022/08/09 07:16:36;;;;;;;7.67;2.80;;;;;;;21.52;98.65;99934.19;5133038;27;20194;-82
2022/08/09 07:19:16;;;;;;;6.38;3.33;;;;;;;21.65;96.36;99923.88;5067775;28;20196;-81
2022/08/09 07:21:52;;;;;;;3.53;2.97;;;;;;;21.67;93.91;99927.25;5051155;28;20223;-79
2022/08/09 07:24:26;;;;;;;6.18;3.00;;;;;;;21.68;93.56;99920.03;5065914;28;20759;-79
2022/08/09 07:27:11;;;;;;;5.63;3.00;;;;;;;21.94;93.04;99928.25;5067528;28;20278;-79
2022/08/09 07:29:54;;;;;;;4.53;3.10;;;;;;;22.07;92.10;99926.06;5070111;28;20248;-79
2022/08/09 07:32:26;;;;;;;4.70;2.77;;;;;;;22.20;91.23;99915.75;5065070;28;20348;-79
2022/08/09 07:35:04;;;;;;;3.87;2.87;;;;;;;22.50;86.57;99921.75;5053951;28;20336;-79
2022/08/09 07:37:40;;;;;;;7.20;2.90;;;;;;;22.41;85.90;99923.53;5064690;28;20203;-79
2022/08/09 07:40:13;;;;;;;4.07;2.80;;;;;;;22.61;85.82;99920.66;5093233;28;20198;-81
2022/08/09 07:42:53;;;;;;;5.05;2.78;;;;;;;22.70;84.93;99927.81;5110086;27;20265;-81
2022/08/09 07:45:26;;;;;;;5.40;2.70;;;;;;;22.68;83.34;99933.38;5169876;27;20690;-82
2022/08/09 07:48:09;;;;;;;4.28;3.10;;;;;;;22.80;85.13;99932.13;5174193;27;20225;-82
2022/08/09 07:50:58;;;;;;;5.60;3.00;;;;;;;22.98;83.91;99932.09;5173048;27;20204;-83
2022/08/09 07:53:49;;;;;;;5.55;2.80;;;;;;;22.91;84.85;99922.94;5175758;27;20188;-82
2022/08/09 07:56:36;;;;;;;7.50;2.90;;;;;;;23.02;83.16;99928.06;5170982;27;20661;-81
2022/08/09 07:59:19;;;;;;;3.80;2.70;;;;;;;23.27;81.22;99914.72;5168462;27;20211;-80
2022/08/09 08:02:08;;;;;;;5.25;2.53;;;;;;;23.24;81.63;99915.84;5176005;27;20224;-82
2022/08/09 08:04:37;;;;;;;5.63;3.17;;;;;;;23.24;81.32;99926.66;5164505;27;20189;-81
2022/08/09 08:07:07;;;;;;;7.28;3.13;;;;;;;23.48;81.04;99920.56;5165476;27;20255;-82
2022/08/09 08:09:56;;;;;;;3.20;2.70;;;;;;;23.85;80.56;99925.63;5175912;27;20200;-82
2022/08/09 08:12:39;;;;;;;5.90;2.90;;;;;;;23.81;79.12;99923.41;5171553;27;20678;-83
2022/08/09 08:15:17;;;;;;;4.72;2.78;;;;;;;23.81;77.04;99918.00;5170774;27;20196;-82
2022/08/09 08:17:51;;;;;;;4.97;2.88;;;;;;;24.11;75.78;99911.97;5173903;27;20197;-83
2022/08/09 08:20:27;;;;;;;4.07;3.00;;;;;;;24.08;74.75;99916.88;5172358;27;20212;-82
2022/08/09 08:23:01;;;;;;;5.57;3.17;;;;;;;24.28;72.31;99910.13;5059893;28;20240;-82
2022/08/09 08:25:47;;;;;;;4.70;2.67;;;;;;;23.98;71.22;99915.16;5052516;28;20212;-82
2022/08/09 08:28:37;;;;;;;4.25;2.70;;;;;;;24.26;70.95;99913.00;5059928;28;20257;-82
2022/08/09 08:31:14;;;;;;;3.65;2.88;;;;;;;24.56;69.14;99905.28;5053875;27;20252;-82
2022/08/09 08:33:44;;;;;;;3.88;2.30;;;;;;;24.86;67.15;99901.00;5060964;28;20204;-81
2022/08/09 08:36:23;;;;;;;3.42;2.60;;;;;;;24.85;66.25;99907.44;5044268;28;20193;-82
2022/08/09 08:39:01;;;;;;;4.07;2.47;;;;;;;25.08;64.34;99902.16;5010921;28;20189;-82
2022/08/09 08:41:31;;;;;;;4.72;2.78;;;;;;;25.33;63.81;99902.97;5009523;28;20195;-82
2022/08/09 08:44:22;;;;;;;4.50;3.65;;;;;;;25.60;62.85;99909.81;4956518;29;20372;-82
2022/08/09 08:47:00;;;;;;;3.90;2.80;;;;;;;25.32;61.59;99899.41;4951288;29;20259;-83
2022/08/09 08:49:39;;;;;;;2.92;2.50;;;;;;;25.48;60.59;99901.22;4954658;29;20233;-82
2022/08/09 08:52:17;;;;;;;4.10;2.50;;;;;;;25.73;59.46;99893.81;4952024;28;20200;-82
2022/08/09 08:55:09;;;;;;;4.75;2.72;;;;;;;25.61;58.57;99906.06;4968127;28;20214;-82
2022/08/09 08:57:40;;;;;;;4.57;2.65;;;;;;;26.00;58.05;99899.78;4970863;28;20243;-82
2022/08/09 09:00:11;;;;;;;2.85;2.33;;;;;;;25.87;56.73;99901.22;4972265;28;20207;-83
2022/08/09 09:02:57;;;;;;;3.20;2.22;;;;;;;26.07;55.47;99903.47;5005328;28;20200;-80
2022/08/09 09:05:35;;;;;;;4.28;2.30;;;;;;;26.48;54.16;99898.63;5067357;28;20191;-80
2022/08/09 09:08:25;;;;;;;6.72;2.83;;;;;;;26.27;54.18;99904.69;5072688;28;20204;-80
2022/08/09 09:10:59;;;;;;;2.78;2.28;;;;;;;26.47;52.96;99910.50;5068366;28;20200;-80
2022/08/09 09:13:29;;;;;;;4.15;2.45;;;;;;;26.50;52.48;99902.00;5058591;28;20201;-79
2022/08/09 09:16:09;;;;;;;5.43;2.40;;;;;;;26.80;50.70;99914.63;5063183;27;20200;-80
2022/08/09 09:18:40;;;;;;;3.65;2.20;;;;;;;27.05;50.35;99912.56;5052778;28;20197;-80
2022/08/09 09:21:18;;;;;;;3.53;2.30;;;;;;;27.06;50.48;99914.25;5090513;27;20248;-84
2022/08/09 09:23:55;;;;;;;3.92;2.17;;;;;;;27.48;48.82;99906.44;5169729;27;20293;-84
2022/08/09 09:26:33;;;;;;;2.70;2.40;;;;;;;27.32;48.54;99911.06;5172780;27;20713;-83
2022/08/09 09:29:03;;;;;;;4.05;2.47;;;;;;;27.00;49.33;99914.09;5175739;27;20189;-84
2022/08/09 09:31:50;;;;;;;3.58;2.60;;;;;;;27.28;49.12;99912.44;5178157;27;20212;-84
2022/08/09 09:34:41;;;;;;;4.90;2.45;;;;;;;27.52;48.81;99910.50;5179067;27;20193;-85
2022/08/09 09:37:28;;;;;;;7.30;2.53;;;;;;;27.42;49.88;99897.19;5169176;27;20189;-85
2022/08/09 09:39:59;;;;;;;3.55;2.22;;;;;;;27.28;48.15;99909.72;5166316;27;20192;-85
2022/08/09 09:42:30;;;;;;;4.78;2.22;;;;;;;27.52;48.67;99903.16;5166296;27;20264;-85
2022/08/09 09:45:01;;;;;;;6.35;2.67;;;;;;;27.88;47.12;99907.81;5127795;27;20392;-85
2022/08/09 09:47:31;;;;;;;3.83;2.20;;;;;;;28.01;45.55;99901.69;5129643;27;20211;-86
2022/08/09 09:50:11;;;;;;;4.00;2.03;;;;;;;27.81;47.13;99896.03;5131977;27;20285;-84
2022/08/09 09:52:51;;;;;;;4.75;2.40;;;;;;;28.05;45.57;99886.63;5124055;27;20226;-83
2022/08/09 09:55:22;;;;;;;2.35;2.00;;;;;;;28.14;45.03;99893.66;5124252;27;20214;-84
2022/08/09 09:58:06;;;;;;;3.42;2.20;;;;;;;28.15;44.55;99892.63;5134652;27;20186;-84
2022/08/09 10:00:48;;;;;;;3.38;2.10;;;;;;;28.58;43.65;99889.91;5131523;27;20198;-84
2022/08/09 10:03:43;;;;;;;3.15;2.30;;;;;;;28.84;42.25;99892.00;5155122;27;20203;-86
2022/08/09 10:06:29;;;;;;;4.40;2.13;;;;;;;29.18;41.30;99889.34;5172752;27;20193;-85
2022/08/09 10:09:01;;;;;;;2.10;1.90;;;;;;;29.28;41.14;99883.50;5167936;27;20192;-85
2022/08/09 10:11:57;;;;;;;5.72;2.53;;;;;;;28.98;42.50;99888.38;5178085;27;20188;-84
2022/08/09 10:14:47;;;;;;;5.85;2.20;;;;;;;29.30;41.17;99886.88;5178154;27;20200;-85
2022/08/09 10:17:19;;;;;;;3.10;2.00;;;;;;;29.70;39.79;99887.94;5169614;27;20193;-85
2022/08/09 10:20:25;;;;;;;5.28;2.15;;;;;;;29.44;40.21;99888.66;5133412;27;20193;-85
2022/08/09 10:23:19;;;;;;;4.50;2.20;;;;;;;29.52;39.39;99891.22;5159283;27;20229;-85
2022/08/09 10:25:56;;;;;;;3.10;2.30;;;;;;;29.85;38.76;99879.59;5110117;28;20252;-80
2022/08/09 10:28:39;;;;;;;3.40;2.22;;;;;;;29.71;38.94;99877.84;5111957;28;20225;-80
2022/08/09 10:31:08;;;;;;;2.80;2.20;;;;;;;30.05;38.10;99877.75;5110864;28;20251;-80
2022/08/09 10:34:04;;;;;;;3.80;2.10;;;;;;;30.24;37.58;99876.13;5113050;28;20199;-80
2022/08/09 10:36:55;;;;;;;3.50;2.03;;;;;;;30.75;37.40;99875.53;5111573;28;20237;-80
2022/08/09 10:39:28;;;;;;;4.10;2.10;;;;;;;30.41;37.19;99876.59;5069655;28;20192;-80
2022/08/09 10:42:08;;;;;;;2.92;1.75;;;;;;;30.65;35.66;99875.97;5070782;28;20199;-80
2022/08/09 10:44:39;;;;;;;5.15;2.10;;;;;;;30.72;36.15;99873.25;5101592;28;20221;-81
2022/08/09 10:47:31;;;;;;;4.55;2.33;;;;;;;30.84;36.03;99867.97;5063358;28;20302;-80
2022/08/09 10:50:27;;;;;;;4.30;1.92;;;;;;;30.43;35.59;99864.38;5112899;28;20203;-80
2022/08/09 10:53:08;;;;;;;3.35;1.90;;;;;;;30.79;35.23;99868.63;5104592;28;20198;-81
2022/08/09 10:55:39;;;;;;;7.38;2.10;;;;;;;30.90;35.13;99862.50;5107055;28;20605;-80
2022/08/09 10:58:31;;;;;;;2.88;2.20;;;;;;;31.33;33.55;99861.97;5129367;27;20193;-80
2022/08/09 11:01:01;;;;;;;4.60;2.05;;;;;;;31.45;33.08;99862.97;5170792;27;20271;-80
2022/08/09 11:04:20;;;;;;;2.10;1.90;;;;;;;31.14;33.07;99860.13;5176865;27;20238;-80
2022/08/09 11:07:32;;;;;;;5.53;1.92;;;;;;;31.18;33.59;99856.75;5170873;27;20227;-80
2022/08/09 11:10:55;;;;;;;4.03;1.95;;;;;;;31.83;32.76;99859.47;5176587;27;20668;-80
2022/08/09 11:13:36;;;;;;;3.38;2.53;;;;;;;31.37;32.53;99866.00;5175627;27;20297;-80
2022/08/09 11:16:38;;;;;;;3.65;2.25;;;;;;;31.66;32.85;99861.88;5172949;27;20197;-80
2022/08/09 11:19:09;;;;;;;2.40;1.83;;;;;;;31.18;32.71;99850.44;5173611;27;20228;-80
2022/08/09 11:21:57;;;;;;;3.42;1.90;;;;;;;31.29;32.87;99847.91;5165590;27;20221;-81
2022/08/09 11:25:07;;;;;;;2.75;1.70;;;;;;;31.94;32.09;99857.94;5176182;27;20245;-80
2022/08/09 11:27:40;;;;;;;2.50;1.77;;;;;;;31.94;32.17;99852.44;5168945;27;20257;-80
2022/08/09 11:30:34;;;;;;;6.18;1.88;;;;;;;32.44;31.52;99854.25;5176527;27;20345;-80
2022/08/09 11:33:11;;;;;;;2.80;1.90;;;;;;;32.37;30.91;99849.88;5171154;27;20204;-80
2022/08/09 11:35:44;;;;;;;3.97;2.30;;;;;;;32.61;31.14;99845.44;5169808;27;20202;-80
2022/08/09 11:38:20;;;;;;;3.58;1.90;;;;;;;32.55;30.75;99849.94;5172604;27;20196;-79
2022/08/09 11:41:03;;;;;;;2.08;1.67;;;;;;;32.39;29.93;99848.59;5176021;27;20192;-80
2022/08/09 11:43:41;;;;;;;4.00;2.10;;;;;;;33.16;29.50;99842.81;5163763;27;20199;-81
2022/08/09 11:46:10;;;;;;;2.47;1.50;;;;;;;33.01;29.12;99841.28;5172663;27;20207;-80
2022/08/09 11:48:49;;;;;;;3.45;1.75;;;;;;;32.95;29.44;99842.19;5176021;27;20213;-80
2022/08/09 11:51:22;;;;;;;5.28;1.98;;;;;;;33.10;29.68;99850.03;5170459;27;20204;-80
2022/08/09 11:54:18;;;;;;;1.98;1.60;;;;;;;33.59;28.28;99848.25;5145919;27;20722;-80
2022/08/09 11:57:29;;;;;;;1.77;1.48;;;;;;;33.24;29.12;99842.50;5173295;27;20714;-80
2022/08/09 12:00:21;;;;;;;3.70;1.58;;;;;;;32.70;29.26;99844.09;5175994;27;20196;-80
2022/08/09 12:02:55;;;;;;;4.20;1.70;;;;;;;32.92;29.13;99841.81;5174042;27;20275;-80
2022/08/09 12:05:31;;;;;;;1.77;1.60;;;;;;;32.47;29.72;99842.81;5172928;27;20232;-81
2022/08/09 12:08:08;;;;;;;2.33;1.50;;;;;;;33.36;28.60;99846.19;5172196;27;20236;-80
2022/08/09 12:10:45;;;;;;;3.45;1.75;;;;;;;33.65;27.82;99838.22;5172720;27;20271;-80
2022/08/09 12:13:29;;;;;;;2.30;1.42;;;;;;;33.54;28.02;99835.19;5173220;27;20184;-80
2022/08/09 12:16:21;;;;;;;4.22;1.70;;;;;;;33.95;28.00;99828.09;5175794;27;20208;-80
2022/08/09 12:19:07;;;;;;;3.85;1.55;;;;;;;33.82;28.05;99828.25;5169131;27;20200;-80
2022/08/09 12:21:39;;;;;;;2.90;1.70;;;;;;;33.83;27.48;99830.78;5167445;27;20304;-80